createdAt,value
2022-12-31T00:01:44.041Z,11.41
2022-12-31T00:04:10.503Z,11.43
2022-12-31T00:06:37.377Z,11.43
2022-12-31T00:09:06.876Z,11.45
2022-12-31T00:11:34.343Z,11.40
2022-12-31T00:14:01.211Z,11.44
2022-12-31T00:16:30.173Z,11.41
2022-12-31T00:19:01.693Z,11.41
2022-12-31T00:21:30.449Z,11.39
2022-12-31T00:23:57.724Z,11.35
2022-12-31T00:26:28.149Z,11.34
2022-12-31T00:28:56.555Z,11.39
2022-12-31T00:31:34.501Z,11.37
2022-12-31T00:34:01.446Z,11.37
2022-12-31T00:36:30.889Z,11.42
2022-12-31T00:38:58.904Z,11.45
2022-12-31T00:41:28.177Z,11.45
2022-12-31T00:43:55.664Z,11.41
2022-12-31T00:46:22.572Z,11.31
2022-12-31T00:48:49.569Z,11.21
2022-12-31T00:51:18.424Z,11.09
2022-12-31T00:53:45.011Z,10.91
2022-12-31T00:56:14.678Z,10.85
2022-12-31T00:58:42.032Z,10.77
2022-12-31T01:01:22.673Z,10.72
2022-12-31T01:03:52.176Z,10.62
2022-12-31T01:06:19.688Z,10.54
2022-12-31T01:08:49.107Z,10.40
2022-12-31T01:11:19.203Z,10.37
2022-12-31T01:13:54.853Z,10.29
2022-12-31T01:16:24.642Z,10.28
2022-12-31T01:18:51.867Z,10.23
2022-12-31T01:21:20.395Z,10.22
2022-12-31T01:23:46.998Z,10.15
2022-12-31T01:26:15.751Z,10.16
2022-12-31T01:28:42.661Z,10.14
2022-12-31T01:31:11.634Z,10.13
2022-12-31T01:33:38.784Z,10.10
2022-12-31T01:36:27.058Z,10.07
2022-12-31T01:38:58.244Z,10.04
2022-12-31T01:41:28.516Z,10.04
2022-12-31T01:43:58.716Z,10.01
2022-12-31T01:46:28.291Z,10.00
2022-12-31T01:49:03.101Z,9.99
2022-12-31T01:51:33.476Z,10.02
2022-12-31T01:54:01.945Z,9.99
2022-12-31T01:56:28.626Z,10.01
2022-12-31T01:58:57.063Z,9.99
2022-12-31T02:01:31.072Z,10.00
2022-12-31T02:03:59.511Z,9.97
2022-12-31T02:06:33.857Z,9.97
2022-12-31T02:09:01.035Z,9.96
2022-12-31T02:11:31.250Z,9.98
2022-12-31T02:14:02.277Z,10.01
2022-12-31T02:16:43.769Z,10.12
2022-12-31T02:19:45.827Z,10.21
2022-12-31T02:22:21.287Z,10.30
2022-12-31T02:25:12.038Z,10.39
2022-12-31T02:27:47.565Z,10.38
2022-12-31T02:30:21.049Z,10.38
2022-12-31T02:33:10.501Z,10.38
2022-12-31T02:35:44.936Z,10.39
2022-12-31T02:38:22.649Z,10.35
2022-12-31T02:40:49.748Z,10.35
2022-12-31T02:43:16.283Z,10.33
2022-12-31T02:45:50.683Z,10.37
2022-12-31T02:48:55.768Z,10.39
2022-12-31T02:51:53.757Z,10.40
2022-12-31T02:54:29.230Z,10.46
2022-12-31T02:57:21.388Z,10.43
2022-12-31T03:00:16.476Z,10.44
2022-12-31T03:02:46.142Z,10.43
2022-12-31T03:05:15.662Z,10.41
2022-12-31T03:07:43.846Z,10.50
2022-12-31T03:10:10.671Z,10.49
2022-12-31T03:12:46.963Z,10.53
2022-12-31T03:15:20.661Z,10.53
2022-12-31T03:17:48.277Z,10.59
2022-12-31T03:20:33.576Z,10.56
2022-12-31T03:23:00.856Z,10.57
2022-12-31T03:25:33.404Z,10.56
2022-12-31T03:28:07.911Z,10.57
2022-12-31T03:30:35.162Z,10.57
2022-12-31T03:33:02.386Z,10.59
2022-12-31T03:35:31.391Z,10.61
2022-12-31T03:37:58.019Z,10.65
2022-12-31T03:40:27.443Z,10.71
2022-12-31T03:42:54.015Z,10.79
2022-12-31T03:45:20.972Z,10.81
2022-12-31T03:47:48.095Z,10.87
2022-12-31T03:50:17.094Z,10.92
2022-12-31T03:52:44.282Z,10.97
2022-12-31T03:55:12.136Z,10.99
2022-12-31T03:57:38.854Z,10.97
2022-12-31T04:00:08.157Z,10.99
2022-12-31T04:02:34.811Z,11.01
2022-12-31T04:05:01.397Z,11.02
2022-12-31T04:07:27.858Z,10.99
2022-12-31T04:09:54.427Z,11.01
2022-12-31T04:12:20.959Z,11.00
2022-12-31T04:14:47.445Z,11.02
2022-12-31T04:17:13.917Z,11.07
2022-12-31T04:19:40.462Z,11.08
2022-12-31T04:22:06.946Z,11.07
2022-12-31T04:24:33.657Z,11.06
2022-12-31T04:27:07.013Z,11.13
2022-12-31T04:29:34.082Z,11.09
2022-12-31T04:32:00.886Z,11.07
2022-12-31T04:34:27.996Z,11.07
2022-12-31T04:36:54.483Z,11.07
2022-12-31T04:39:21.041Z,11.07
2022-12-31T04:41:48.674Z,11.07
2022-12-31T04:44:15.454Z,11.06
2022-12-31T04:46:41.962Z,11.06
2022-12-31T04:49:08.921Z,11.05
2022-12-31T04:51:36.416Z,11.06
2022-12-31T04:54:03.636Z,11.08
2022-12-31T04:56:30.856Z,11.07
2022-12-31T04:58:57.397Z,11.03
2022-12-31T05:01:24.863Z,11.06
2022-12-31T05:03:51.710Z,11.10
2022-12-31T05:06:21.379Z,11.15
2022-12-31T05:08:48.978Z,11.18
2022-12-31T05:11:16.318Z,11.27
2022-12-31T05:13:43.537Z,11.31
2022-12-31T05:16:10.866Z,11.46
2022-12-31T05:18:37.689Z,11.51
2022-12-31T05:21:04.760Z,11.63
2022-12-31T05:23:31.336Z,11.76
2022-12-31T05:25:59.722Z,11.86
2022-12-31T05:28:26.598Z,11.96
2022-12-31T05:30:53.256Z,12.08
2022-12-31T05:33:20.689Z,12.09
2022-12-31T05:35:47.621Z,12.10
2022-12-31T05:38:14.227Z,12.12
2022-12-31T05:40:40.726Z,12.14
2022-12-31T05:43:07.697Z,12.18
2022-12-31T05:45:34.473Z,12.19
2022-12-31T05:48:01.127Z,12.22
2022-12-31T05:50:27.675Z,12.23
2022-12-31T05:52:54.265Z,12.28
2022-12-31T05:55:20.844Z,12.28
2022-12-31T05:57:47.365Z,12.32
2022-12-31T06:00:14.627Z,12.32
2022-12-31T06:02:41.378Z,12.28
2022-12-31T06:05:08.291Z,12.28
2022-12-31T06:07:34.844Z,12.28
2022-12-31T06:10:01.352Z,12.30
2022-12-31T06:12:27.821Z,12.25
2022-12-31T06:14:54.304Z,12.25
2022-12-31T06:17:22.410Z,12.25
2022-12-31T06:19:49.256Z,12.35
2022-12-31T06:22:16.327Z,12.36
2022-12-31T06:24:42.809Z,12.47
2022-12-31T06:27:09.408Z,12.52
2022-12-31T06:29:35.959Z,12.62
2022-12-31T06:32:02.662Z,12.65
2022-12-31T06:34:29.146Z,12.71
2022-12-31T06:36:55.666Z,12.74
2022-12-31T06:39:22.324Z,12.71
2022-12-31T06:41:49.205Z,12.73
2022-12-31T06:44:15.754Z,12.75
2022-12-31T06:46:42.809Z,12.75
2022-12-31T06:49:09.587Z,12.69
2022-12-31T06:51:36.147Z,12.59
2022-12-31T06:54:02.629Z,12.36
2022-12-31T06:56:34.523Z,12.28
2022-12-31T06:59:02.508Z,12.21
2022-12-31T07:01:29.332Z,12.18
2022-12-31T07:04:13.224Z,12.15
2022-12-31T07:07:05.192Z,12.16
2022-12-31T07:09:44.836Z,12.11
2022-12-31T07:12:15.723Z,12.09
2022-12-31T07:15:02.844Z,12.08
2022-12-31T07:17:29.238Z,12.09
2022-12-31T07:20:15.824Z,12.04
2022-12-31T07:22:42.648Z,12.00
2022-12-31T07:25:17.053Z,12.00
2022-12-31T07:28:07.196Z,12.01
2022-12-31T07:30:47.422Z,12.00
2022-12-31T07:33:50.743Z,11.94
2022-12-31T07:36:29.224Z,11.93
2022-12-31T07:39:04.610Z,11.94
2022-12-31T07:41:39.869Z,11.96
2022-12-31T07:44:30.478Z,12.11
2022-12-31T07:46:59.777Z,12.46
2022-12-31T07:49:28.491Z,12.53
2022-12-31T07:51:55.429Z,12.58
2022-12-31T07:54:22.624Z,12.62
2022-12-31T07:56:50.270Z,12.73
2022-12-31T07:59:48.851Z,12.83
2022-12-31T08:02:18.243Z,12.91
2022-12-31T08:05:05.951Z,12.94
2022-12-31T08:07:56.508Z,12.94
2022-12-31T08:10:50.068Z,12.96
2022-12-31T08:13:17.385Z,12.96
2022-12-31T08:15:44.212Z,12.96
2022-12-31T08:18:11.010Z,12.96
2022-12-31T08:20:58.371Z,12.94
2022-12-31T08:23:32.790Z,13.02
2022-12-31T08:26:17.815Z,13.08
2022-12-31T08:28:47.235Z,13.14
2022-12-31T08:31:21.303Z,13.12
2022-12-31T08:34:29.854Z,13.25
2022-12-31T08:37:06.710Z,13.22
2022-12-31T08:39:33.206Z,13.23
2022-12-31T08:42:03.722Z,13.28
2022-12-31T08:45:08.827Z,13.29
2022-12-31T08:47:59.537Z,13.32
2022-12-31T08:50:27.409Z,13.35
2022-12-31T08:52:54.387Z,13.33
2022-12-31T08:55:21.483Z,13.30
2022-12-31T08:58:05.902Z,13.34
2022-12-31T09:00:35.099Z,13.34
2022-12-31T09:03:19.418Z,13.36
2022-12-31T09:06:04.461Z,13.40
2022-12-31T09:08:51.953Z,13.37
2022-12-31T09:11:30.951Z,13.41
2022-12-31T09:14:00.074Z,13.45
2022-12-31T09:16:29.369Z,13.43
2022-12-31T09:18:55.891Z,13.43
2022-12-31T09:21:22.681Z,13.46
2022-12-31T09:23:49.652Z,13.50
2022-12-31T09:26:25.109Z,13.48
2022-12-31T09:29:19.328Z,13.50
2022-12-31T09:32:04.159Z,13.55
2022-12-31T09:34:45.950Z,13.57
2022-12-31T09:37:21.514Z,13.63
2022-12-31T09:39:48.963Z,13.63
2022-12-31T09:42:30.336Z,13.65
2022-12-31T09:45:24.771Z,13.61
2022-12-31T09:48:18.826Z,13.57
2022-12-31T09:51:19.164Z,13.56
2022-12-31T09:54:20.774Z,13.56
2022-12-31T09:57:07.935Z,13.51
2022-12-31T09:59:50.857Z,13.51
2022-12-31T10:02:38.594Z,13.51
2022-12-31T10:05:29.716Z,13.53
2022-12-31T10:08:15.147Z,13.47
2022-12-31T10:10:58.715Z,13.49
2022-12-31T10:13:34.375Z,13.51
2022-12-31T10:16:15.827Z,13.52
2022-12-31T10:18:51.157Z,13.60
2022-12-31T10:21:48.498Z,13.64
2022-12-31T10:24:34.231Z,13.70
2022-12-31T10:27:14.176Z,13.74
2022-12-31T10:29:47.851Z,13.75
2022-12-31T10:32:40.031Z,13.75
2022-12-31T10:35:27.396Z,13.78
2022-12-31T10:37:57.026Z,13.78
2022-12-31T10:40:32.669Z,13.78
2022-12-31T10:43:17.221Z,13.80
2022-12-31T10:46:25.566Z,13.83
2022-12-31T10:49:25.669Z,13.76
2022-12-31T10:52:10.557Z,13.71
2022-12-31T10:55:05.163Z,13.63
2022-12-31T10:57:45.644Z,13.63
2022-12-31T11:00:16.916Z,13.54
2022-12-31T11:02:52.631Z,13.59
2022-12-31T11:05:31.036Z,13.63
2022-12-31T11:08:34.777Z,13.66
2022-12-31T11:11:07.181Z,13.70
2022-12-31T11:13:52.359Z,13.67
2022-12-31T11:16:30.826Z,13.71
2022-12-31T11:19:23.176Z,13.70
2022-12-31T11:22:16.282Z,13.71
2022-12-31T11:24:54.860Z,13.77
2022-12-31T11:27:47.678Z,13.78
2022-12-31T11:30:21.756Z,13.76
2022-12-31T11:33:14.024Z,13.72
2022-12-31T11:36:01.736Z,13.68
2022-12-31T11:38:37.701Z,13.76
2022-12-31T11:41:19.438Z,13.72
2022-12-31T11:44:00.871Z,13.73
2022-12-31T11:47:03.760Z,13.73
2022-12-31T11:49:54.044Z,13.74
2022-12-31T11:52:26.628Z,13.75
2022-12-31T11:55:03.648Z,13.78
2022-12-31T11:57:30.104Z,13.82
2022-12-31T12:00:01.797Z,13.86
2022-12-31T12:02:37.519Z,13.86
2022-12-31T12:05:10.949Z,13.90
2022-12-31T12:07:37.870Z,13.86
2022-12-31T12:10:19.448Z,13.88
2022-12-31T12:12:45.959Z,13.86
2022-12-31T12:15:20.473Z,13.87
2022-12-31T12:17:54.805Z,13.80
2022-12-31T12:20:32.844Z,13.78
2022-12-31T12:23:12.572Z,13.68
2022-12-31T12:25:42.899Z,13.79
2022-12-31T12:28:22.676Z,13.79
2022-12-31T12:30:59.607Z,13.78
2022-12-31T12:33:26.845Z,13.78
2022-12-31T12:35:53.340Z,13.73
2022-12-31T12:38:22.960Z,13.76
2022-12-31T12:41:02.250Z,13.72
2022-12-31T12:43:35.095Z,13.71
2022-12-31T12:46:18.546Z,13.65
2022-12-31T12:48:47.906Z,13.64
2022-12-31T12:51:41.492Z,13.65
2022-12-31T12:54:44.076Z,13.70
2022-12-31T12:57:25.501Z,13.70
2022-12-31T13:00:04.608Z,13.71
2022-12-31T13:03:15.230Z,13.67
2022-12-31T13:06:25.810Z,13.64
2022-12-31T13:09:03.102Z,13.62
2022-12-31T13:12:07.077Z,13.67
2022-12-31T13:15:03.266Z,13.63
2022-12-31T13:17:58.595Z,13.49
2022-12-31T13:20:53.920Z,13.40
2022-12-31T13:23:27.443Z,13.35
2022-12-31T13:26:16.660Z,13.23
2022-12-31T13:28:46.767Z,13.18
2022-12-31T13:31:18.151Z,13.12
2022-12-31T13:33:49.709Z,13.06
2022-12-31T13:36:19.715Z,13.06
2022-12-31T13:38:51.423Z,13.08
2022-12-31T13:41:27.085Z,13.07
2022-12-31T13:44:11.087Z,13.09
2022-12-31T13:46:46.267Z,13.08
2022-12-31T13:49:25.544Z,13.16
2022-12-31T13:52:16.768Z,13.23
2022-12-31T13:54:52.227Z,13.20
2022-12-31T13:57:49.904Z,13.26
2022-12-31T14:00:45.501Z,13.32
2022-12-31T14:03:35.822Z,13.43
2022-12-31T14:06:21.320Z,13.59
2022-12-31T14:08:47.980Z,13.79
2022-12-31T14:11:36.338Z,14.09
2022-12-31T14:14:35.474Z,14.26
2022-12-31T14:17:17.646Z,14.34
2022-12-31T14:19:55.348Z,14.45
2022-12-31T14:22:36.354Z,14.50
2022-12-31T14:25:08.734Z,14.54
2022-12-31T14:27:41.824Z,14.55
2022-12-31T14:30:23.589Z,14.52
2022-12-31T14:33:38.784Z,14.57
2022-12-31T14:36:43.487Z,14.58
2022-12-31T14:39:37.587Z,14.60
2022-12-31T14:42:30.346Z,14.53
2022-12-31T14:45:21.074Z,14.58
2022-12-31T14:47:54.745Z,14.54
2022-12-31T14:50:27.354Z,14.60
2022-12-31T14:52:55.165Z,14.60
2022-12-31T14:55:24.281Z,14.56
2022-12-31T14:58:26.341Z,14.54
2022-12-31T15:00:59.371Z,14.51
2022-12-31T15:03:42.920Z,14.49
2022-12-31T15:06:23.820Z,14.52
2022-12-31T15:09:08.189Z,14.51
2022-12-31T15:12:00.738Z,14.47
2022-12-31T15:14:57.539Z,14.48
2022-12-31T15:17:36.140Z,14.41
2022-12-31T15:20:16.924Z,14.40
2022-12-31T15:22:49.611Z,14.31
2022-12-31T15:25:38.346Z,14.35
2022-12-31T15:28:24.668Z,14.32
2022-12-31T15:31:01.201Z,14.28
2022-12-31T15:33:36.440Z,14.33
2022-12-31T15:36:20.290Z,14.34
2022-12-31T15:38:47.943Z,14.30
2022-12-31T15:41:16.347Z,14.24
2022-12-31T15:43:51.878Z,14.27
2022-12-31T15:46:32.800Z,14.24
2022-12-31T15:49:19.251Z,14.29
2022-12-31T15:51:57.208Z,14.31
2022-12-31T15:54:38.605Z,14.29
2022-12-31T15:57:12.180Z,14.32
2022-12-31T15:59:40.033Z,14.34
2022-12-31T16:02:20.877Z,14.35
2022-12-31T16:04:48.130Z,14.32
2022-12-31T16:07:15.920Z,14.28
2022-12-31T16:09:45.080Z,14.24
2022-12-31T16:12:32.728Z,14.29
2022-12-31T16:15:01.715Z,14.36
2022-12-31T16:17:34.635Z,14.36
2022-12-31T16:20:22.387Z,14.35
2022-12-31T16:22:54.808Z,14.26
2022-12-31T16:25:31.299Z,14.17
2022-12-31T16:28:00.821Z,14.17
2022-12-31T16:30:32.480Z,14.14
2022-12-31T16:33:01.887Z,14.11
2022-12-31T16:35:29.979Z,14.08
2022-12-31T16:38:17.394Z,14.10
2022-12-31T16:41:01.398Z,14.14
2022-12-31T16:43:39.574Z,14.14
2022-12-31T16:46:16.372Z,14.12
2022-12-31T16:48:54.149Z,14.19
2022-12-31T16:51:24.263Z,14.16
2022-12-31T16:53:51.645Z,14.20
2022-12-31T16:56:34.942Z,14.27
2022-12-31T16:59:05.801Z,14.27
2022-12-31T17:01:35.733Z,14.32
2022-12-31T17:04:08.100Z,14.23
2022-12-31T17:06:34.770Z,14.37
2022-12-31T17:09:12.989Z,14.40
2022-12-31T17:12:12.360Z,14.48
2022-12-31T17:14:51.124Z,14.55
2022-12-31T17:17:30.026Z,14.59
2022-12-31T17:20:01.581Z,14.63
2022-12-31T17:22:40.340Z,14.58
2022-12-31T17:25:07.560Z,14.53
2022-12-31T17:27:35.826Z,14.56
2022-12-31T17:30:22.693Z,14.55
2022-12-31T17:32:50.637Z,14.55
2022-12-31T17:35:33.397Z,14.61
2022-12-31T17:38:18.337Z,14.54
2022-12-31T17:40:51.415Z,14.47
2022-12-31T17:43:21.117Z,14.48
2022-12-31T17:45:50.486Z,14.56
2022-12-31T17:48:19.302Z,14.58
2022-12-31T17:50:51.623Z,14.53
2022-12-31T17:53:18.864Z,14.50
2022-12-31T17:55:49.899Z,14.43
2022-12-31T17:58:43.408Z,14.47
2022-12-31T18:01:11.830Z,14.54
2022-12-31T18:03:38.437Z,14.60
2022-12-31T18:06:05.539Z,14.59
2022-12-31T18:08:32.363Z,14.44
2022-12-31T18:10:58.917Z,14.36
2022-12-31T18:13:27.257Z,14.33
2022-12-31T18:15:54.422Z,14.27
2022-12-31T18:18:26.633Z,14.26
2022-12-31T18:21:07.433Z,14.10
2022-12-31T18:23:48.005Z,14.19
2022-12-31T18:26:16.501Z,14.15
2022-12-31T18:28:43.068Z,14.05
2022-12-31T18:31:19.967Z,13.98
2022-12-31T18:33:47.533Z,14.00
2022-12-31T18:36:15.905Z,14.00
2022-12-31T18:38:42.925Z,13.99
2022-12-31T18:41:22.712Z,14.00
2022-12-31T18:43:49.955Z,14.00
2022-12-31T18:46:19.589Z,13.95
2022-12-31T18:48:46.183Z,13.95
2022-12-31T18:51:29.629Z,13.92
2022-12-31T18:53:59.632Z,13.93
2022-12-31T18:56:26.510Z,13.84
2022-12-31T18:58:53.358Z,13.80
2022-12-31T19:01:29.402Z,13.78
2022-12-31T19:03:58.942Z,13.81
2022-12-31T19:06:25.865Z,13.84
2022-12-31T19:08:52.609Z,13.91
2022-12-31T19:11:20.243Z,13.90
2022-12-31T19:13:46.802Z,14.01
2022-12-31T19:16:14.116Z,13.99
2022-12-31T19:18:41.753Z,14.00
2022-12-31T19:21:20.921Z,14.06
2022-12-31T19:23:47.504Z,14.08
2022-12-31T19:26:20.842Z,14.10
2022-12-31T19:28:48.518Z,14.16
2022-12-31T19:31:17.209Z,14.21
2022-12-31T19:33:44.091Z,14.24
2022-12-31T19:36:18.779Z,14.19
2022-12-31T19:38:45.600Z,14.26
2022-12-31T19:41:20.168Z,14.25
2022-12-31T19:43:48.070Z,14.28
2022-12-31T19:46:16.616Z,14.22
2022-12-31T19:48:43.857Z,14.21
2022-12-31T19:51:15.138Z,14.15
2022-12-31T19:53:41.626Z,14.24
2022-12-31T19:56:13.814Z,14.20
2022-12-31T19:58:40.322Z,14.21
2022-12-31T20:01:08.057Z,14.10
2022-12-31T20:03:34.956Z,14.20
2022-12-31T20:06:07.580Z,14.18
2022-12-31T20:08:35.909Z,14.07
2022-12-31T20:11:20.309Z,14.06
2022-12-31T20:13:48.106Z,14.10
2022-12-31T20:16:18.319Z,14.11
2022-12-31T20:18:46.840Z,14.07
2022-12-31T20:21:25.073Z,14.06
2022-12-31T20:23:53.230Z,14.02
2022-12-31T20:26:21.271Z,13.96
2022-12-31T20:28:48.536Z,13.95
2022-12-31T20:31:30.348Z,13.92
2022-12-31T20:33:56.921Z,13.94
2022-12-31T20:36:24.309Z,13.93
2022-12-31T20:38:50.884Z,13.89
2022-12-31T20:41:20.002Z,13.96
2022-12-31T20:43:47.170Z,13.95
2022-12-31T20:46:23.697Z,13.94
2022-12-31T20:48:52.428Z,14.02
2022-12-31T20:51:20.967Z,14.08
2022-12-31T20:53:55.651Z,13.92
2022-12-31T20:56:23.572Z,13.94
2022-12-31T20:58:50.261Z,13.95
2022-12-31T21:01:18.147Z,13.94
2022-12-31T21:04:06.585Z,14.07
2022-12-31T21:06:35.391Z,14.07
2022-12-31T21:09:03.984Z,14.04
2022-12-31T21:11:49.148Z,14.02
2022-12-31T21:14:15.827Z,14.02
2022-12-31T21:16:42.394Z,13.96
2022-12-31T21:19:09.921Z,14.04
2022-12-31T21:21:36.583Z,13.98
2022-12-31T21:24:03.498Z,13.90
2022-12-31T21:26:30.661Z,13.92
2022-12-31T21:28:57.196Z,13.88
2022-12-31T21:31:23.722Z,13.97
2022-12-31T21:33:51.329Z,13.96
2022-12-31T21:36:18.068Z,13.95
2022-12-31T21:38:44.793Z,13.92
2022-12-31T21:41:35.055Z,13.98
2022-12-31T21:44:02.477Z,13.98
2022-12-31T21:46:29.455Z,14.00
2022-12-31T21:48:57.568Z,13.98
2022-12-31T21:51:24.584Z,14.02
2022-12-31T21:53:51.550Z,13.95
2022-12-31T21:56:21.398Z,13.94
2022-12-31T21:59:15.498Z,13.86
2022-12-31T22:02:01.493Z,13.76
2022-12-31T22:05:00.989Z,13.81
2022-12-31T22:07:17.196Z,13.81
2022-12-31T22:09:43.679Z,13.82
2022-12-31T22:12:10.536Z,13.82
2022-12-31T22:14:37.123Z,13.86
2022-12-31T22:17:03.689Z,13.77
2022-12-31T22:19:30.468Z,13.83
2022-12-31T22:21:56.953Z,13.76
2022-12-31T22:24:23.472Z,13.82
2022-12-31T22:26:50.961Z,13.84
2022-12-31T22:29:19.230Z,13.78
2022-12-31T22:31:45.791Z,13.74
2022-12-31T22:34:12.338Z,13.78
2022-12-31T22:36:38.839Z,13.77
2022-12-31T22:39:05.332Z,13.88
2022-12-31T22:41:31.922Z,13.89
2022-12-31T22:44:03.638Z,13.99
2022-12-31T22:46:31.843Z,13.86
2022-12-31T22:49:00.150Z,13.92
2022-12-31T22:51:56.902Z,13.88
2022-12-31T22:54:15.747Z,13.92
2022-12-31T22:56:42.381Z,13.84
2022-12-31T22:59:09.409Z,13.86
2022-12-31T23:01:35.986Z,13.81
2022-12-31T23:04:02.967Z,13.92
2022-12-31T23:06:29.768Z,13.89
2022-12-31T23:09:15.247Z,13.87
2022-12-31T23:11:43.321Z,13.95
2022-12-31T23:14:34.869Z,13.95
2022-12-31T23:17:30.253Z,13.87
2022-12-31T23:20:16.664Z,13.94
2022-12-31T23:23:01.930Z,13.90
2022-12-31T23:25:32.186Z,13.82
2022-12-31T23:27:59.030Z,13.83
2022-12-31T23:30:25.572Z,13.85
2022-12-31T23:32:52.085Z,13.80
2022-12-31T23:35:18.701Z,13.85
2022-12-31T23:37:45.376Z,13.76
2022-12-31T23:40:17.191Z,13.78
2022-12-31T23:42:47.282Z,13.68
2022-12-31T23:45:13.802Z,13.72
2022-12-31T23:47:40.251Z,13.70
2022-12-31T23:50:07.388Z,13.84
2022-12-31T23:52:33.951Z,13.85
2022-12-31T23:55:00.482Z,13.90
2022-12-31T23:57:27.059Z,13.97
2022-12-31T23:59:53.557Z,14.03
